Terminal Aerodrome Forecast
Issued by NWS Shreveport, LA

Home | Current Version | Previous Version | Text Only | Print | Product List | Glossary On
Versions: 1 2 3 4 5 6 7 8 9 10 11 12 13 14 15 16 17
000
FTUS44 KSHV 062033 AAA
TAFTYR
TAF AMD
KTYR 062033Z 0621/0718 15013KT P6SM VCSH SCT025 BKN035 BKN060
     FM062300 16013KT P6SM VCTS BKN035CB OVC050
     FM070100 14006KT P6SM SCT035 BKN045
     FM070700 16007KT P6SM OVC010
     FM071100 15008KT 4SM BR OVC007
     FM071700 17011G17KT P6SM OVC015=

USA.gov is the U.S. government's official web portal to all federal, state and local government web resources and services.